メインページ
METAR-TAF:

METAR-TAF

空港 :

エル・アルト国際空港

ラパス, ボリビア

緯度: 16-31S, 経度: 068-11W, 海抜: 4058m

現時点の気象観測

当レポートは40分前の20:00(UTC)に作成
東/南東の風 8kt、東/北東から南/南西の間で変化する
気温
気圧 1036 hPa
視程10km以上
高度2000ftの雲はほとんどない
高度2300ftの雲はほとんどない, 積乱雲.

METAR: SLLP 212000Z 12008KT 070V200 9999 FEW020 FEW023CB 17/M01Q1036

時間: 16:40 (20:40 UTC)

予報

当レポートは3時間30分前の17:10(UTC)に作成
予報は21日の 18時(UTC)から 22日の 18時(UTC)まで有効
南東の風 12kt
視程10km以上
高度2000ftの雲は散在している
高度2300ftの雲はほとんどない, 積乱雲.
21日の 19時(UTC)から 21日の 21時(UTC)まで一時的に
南東の風 15kt、最大25ktの突風を伴う
21日の 23時(UTC)から 22日の 02時(UTC)まで徐々に
東/北東の風 7kt
高度1000ftの雲は散在している
22日の 07時(UTC)から 22日の 11時(UTC)まで一時的に
視程: 3000m
近辺で霧
22日の 15時(UTC)から 22日の 17時(UTC)まで徐々に
南東の風 12kt

TAF: SLLP 211710Z 2118/2218 13012KT 9999 SCT020 FEW023CB TX18/2120Z TN05/2210Z TEMPO 2119/2121 13015G25KT BECMG 2123/2202 06007KT SCT010 TEMPO 2207/2211 3000E VCFG BECMG 2215/2217 13012KT

4,000以上の空港の気象観測と天気予報(METAR報とTAF報)

利用可能な観測所は地図上に黄色い丸と赤い丸で示す。

丸の上にカーソルを重ねると観測所名を参照できる。

次にクリックすると気象観測と天気予報を参照できる。

マップの切り替え:黒色「×」印の緑ボタンをクリックして拡大、「-」印の緑ボタンをクリックして縮小、緑色の三角印をクリックして隣りの地図に切り替え


METAR-TAF: